Time;durP1;ratioP1;P1;durP2;ratioP2;P2;SDS_P1;SDS_P2;PMS_P1;PMS_P2;Temp;Humidity;BMP_temperature;BMP_pressure;BME280_temperature;BME280_humidity;BME280_pressure;Samples;Min_cycle;Max_cycle;Signal;HPM_P1;HPM_P2
2022/12/01 00:01:49;;;;;;;;;14.00;13.00;;;;;;;;5040793;28;51161;-49
2022/12/01 00:04:33;;;;;;;;;18.75;13.25;;;;;;;;5040768;28;51339;-50
2022/12/01 00:07:17;;;;;;;;;14.25;12.75;;;;;;;;5038369;28;51116;-49
2022/12/01 00:13:05;;;;;;;;;17.00;11.75;;;;;;;;5041235;28;51167;-48
2022/12/01 00:15:49;;;;;;;;;14.25;11.50;;;;;;;;5039901;28;51083;-48
2022/12/01 00:18:34;;;;;;;;;14.50;12.25;;;;;;;;5041126;28;51232;-50
2022/12/01 00:21:20;;;;;;;;;15.00;12.75;;;;;;;;5041620;28;51147;-51
2022/12/01 00:24:06;;;;;;;;;14.75;12.50;;;;;;;;5041515;28;51194;-50
2022/12/01 00:26:50;;;;;;;;;15.25;14.00;;;;;;;;5041557;28;51126;-49
2022/12/01 00:29:34;;;;;;;;;15.75;13.00;;;;;;;;5040990;28;51123;-49
2022/12/01 00:32:18;;;;;;;;;11.50;11.25;;;;;;;;5040159;28;51142;-50
2022/12/01 00:35:04;;;;;;;;;15.00;13.75;;;;;;;;5041236;28;51527;-49
2022/12/01 00:37:48;;;;;;;;;14.25;11.00;;;;;;;;5041061;28;51122;-50
2022/12/01 00:40:32;;;;;;;;;13.00;12.50;;;;;;;;5041058;28;51300;-49
2022/12/01 00:43:17;;;;;;;;;15.00;12.00;;;;;;;;5041090;28;51180;-52
2022/12/01 00:46:01;;;;;;;;;14.75;12.75;;;;;;;;5041283;28;51035;-51
2022/12/01 00:48:46;;;;;;;;;17.75;11.50;;;;;;;;5040651;28;51138;-48
2022/12/01 00:51:30;;;;;;;;;20.50;9.75;;;;;;;;5041130;28;51136;-48
2022/12/01 00:54:15;;;;;;;;;15.00;11.75;;;;;;;;5040835;28;51440;-49
2022/12/01 00:56:59;;;;;;;;;18.75;15.00;;;;;;;;5041184;28;51180;-52
2022/12/01 00:59:44;;;;;;;;;14.75;12.50;;;;;;;;5040717;28;51011;-50
2022/12/01 01:02:28;;;;;;;;;14.50;12.50;;;;;;;;5040723;28;51086;-50
2022/12/01 01:05:12;;;;;;;;;15.25;14.25;;;;;;;;5040950;28;51120;-48
2022/12/01 01:07:57;;;;;;;;;14.25;11.00;;;;;;;;5040680;28;51141;-50
2022/12/01 01:10:43;;;;;;;;;15.50;12.50;;;;;;;;5040405;28;51113;-50
2022/12/01 01:13:28;;;;;;;;;14.50;11.50;;;;;;;;5040319;28;51065;-49
2022/12/01 01:16:15;;;;;;;;;18.75;16.00;;;;;;;;5040919;28;51084;-49
2022/12/01 01:18:59;;;;;;;;;17.00;13.75;;;;;;;;5040253;28;51150;-48
2022/12/01 01:21:44;;;;;;;;;10.75;9.50;;;;;;;;5040154;28;51182;-51
2022/12/01 01:24:28;;;;;;;;;13.50;12.00;;;;;;;;5040408;28;51409;-49
2022/12/01 01:27:12;;;;;;;;;16.00;13.00;;;;;;;;5040093;28;51247;-48
2022/12/01 01:29:57;;;;;;;;;14.50;13.00;;;;;;;;5039945;28;51104;-49
2022/12/01 01:32:41;;;;;;;;;13.50;12.25;;;;;;;;5040268;28;51157;-50
2022/12/01 01:35:25;;;;;;;;;13.00;12.00;;;;;;;;5040007;28;51434;-51
2022/12/01 01:38:10;;;;;;;;;14.75;11.50;;;;;;;;5039741;28;51029;-51
2022/12/01 01:40:54;;;;;;;;;14.00;13.75;;;;;;;;5039854;28;51132;-49
2022/12/01 01:43:45;;;;;;;;;13.00;11.75;;;;;;;;5039857;28;51482;-49
2022/12/01 01:46:30;;;;;;;;;13.25;10.75;;;;;;;;5040022;28;51023;-51
2022/12/01 01:49:15;;;;;;;;;14.00;12.25;;;;;;;;5039739;28;51519;-49
2022/12/01 01:52:03;;;;;;;;;14.25;13.00;;;;;;;;5039804;28;51062;-49
2022/12/01 01:54:49;;;;;;;;;13.75;12.25;;;;;;;;5039581;28;51392;-52
2022/12/01 01:57:34;;;;;;;;;14.25;11.75;;;;;;;;5039808;28;51124;-49
2022/12/01 02:00:20;;;;;;;;;11.75;10.25;;;;;;;;5039573;28;51136;-51
2022/12/01 02:03:04;;;;;;;;;15.25;10.25;;;;;;;;5039227;28;51084;-49
2022/12/01 02:05:49;;;;;;;;;15.75;14.00;;;;;;;;5039963;28;51074;-48
2022/12/01 02:08:34;;;;;;;;;12.50;12.50;;;;;;;;5039649;28;52009;-49
2022/12/01 02:11:32;;;;;;;;;21.25;12.50;;;;;;;;5039244;28;51171;-49
2022/12/01 02:14:31;;;;;;;;;14.00;13.00;;;;;;;;5039251;28;51154;-48
2022/12/01 02:17:24;;;;;;;;;15.50;11.75;;;;;;;;5039320;28;51102;-49
2022/12/01 02:20:27;;;;;;;;;11.00;11.00;;;;;;;;5039277;28;51117;-51
2022/12/01 02:23:30;;;;;;;;;8.25;7.25;;;;;;;;5039279;28;51111;-50
2022/12/01 02:26:23;;;;;;;;;11.50;11.50;;;;;;;;5039210;28;51456;-50
2022/12/01 02:29:16;;;;;;;;;14.25;13.50;;;;;;;;5039254;28;51148;-51
2022/12/01 02:32:10;;;;;;;;;13.75;11.50;;;;;;;;5039495;28;51157;-50
2022/12/01 02:35:13;;;;;;;;;13.25;13.25;;;;;;;;5039328;28;51070;-48
2022/12/01 02:38:16;;;;;;;;;15.50;12.75;;;;;;;;5039202;28;51100;-50
2022/12/01 02:41:06;;;;;;;;;16.25;13.25;;;;;;;;5039314;28;51564;-47
2022/12/01 02:43:53;;;;;;;;;17.75;14.25;;;;;;;;5043491;28;51152;-50
2022/12/01 02:46:44;;;;;;;;;18.75;15.25;;;;;;;;5042934;28;51533;-51
2022/12/01 02:49:32;;;;;;;;;19.50;15.00;;;;;;;;5043099;28;51194;-49
2022/12/01 02:52:17;;;;;;;;;15.75;13.50;;;;;;;;5043213;28;51244;-47
2022/12/01 02:55:02;;;;;;;;;14.00;13.25;;;;;;;;5042962;28;51129;-49
2022/12/01 02:57:47;;;;;;;;;17.75;15.00;;;;;;;;5043222;28;51130;-48
2022/12/01 03:00:31;;;;;;;;;21.75;17.75;;;;;;;;5042888;28;52051;-47
2022/12/01 03:03:36;;;;;;;;;20.00;13.75;;;;;;;;5043051;28;51109;-49
2022/12/01 03:06:29;;;;;;;;;20.75;15.25;;;;;;;;5041772;28;51271;-49
2022/12/01 03:09:32;;;;;;;;;17.75;12.25;;;;;;;;5043077;28;51167;-51
2022/12/01 03:12:23;;;;;;;;;15.25;14.75;;;;;;;;5042759;28;51240;-51
2022/12/01 03:15:17;;;;;;;;;16.00;15.00;;;;;;;;5042878;28;51168;-51
2022/12/01 03:18:04;;;;;;;;;13.00;13.00;;;;;;;;5042822;28;51152;-49
2022/12/01 03:21:04;;;;;;;;;9.50;9.50;;;;;;;;5042479;28;51201;-50
2022/12/01 03:23:54;;;;;;;;;15.00;13.50;;;;;;;;5042578;28;51132;-49
2022/12/01 03:26:40;;;;;;;;;17.00;13.75;;;;;;;;5042305;28;51101;-49
2022/12/01 03:29:35;;;;;;;;;19.25;14.50;;;;;;;;5042646;28;51135;-48
2022/12/01 03:32:24;;;;;;;;;19.00;13.50;;;;;;;;5042784;28;52074;-51
2022/12/01 03:35:13;;;;;;;;;18.50;15.75;;;;;;;;5036070;28;51275;-49
2022/12/01 03:37:57;;;;;;;;;18.75;15.25;;;;;;;;5041900;28;51109;-48
2022/12/01 03:40:43;;;;;;;;;19.75;15.75;;;;;;;;5042210;28;51085;-49
2022/12/01 03:43:32;;;;;;;;;19.25;16.25;;;;;;;;5042368;28;51432;-48
2022/12/01 03:46:39;;;;;;;;;19.25;16.50;;;;;;;;5042054;28;51023;-50
2022/12/01 03:49:25;;;;;;;;;21.00;18.00;;;;;;;;5042460;28;50988;-50
2022/12/01 03:52:19;;;;;;;;;25.00;19.75;;;;;;;;5041912;28;51480;-51
2022/12/01 03:55:21;;;;;;;;;31.75;20.75;;;;;;;;5041039;28;51139;-51
2022/12/01 03:58:09;;;;;;;;;26.00;21.50;;;;;;;;5042009;28;51113;-47
2022/12/01 04:00:56;;;;;;;;;25.50;22.25;;;;;;;;5041814;28;51054;-50
2022/12/01 04:03:40;;;;;;;;;23.50;21.75;;;;;;;;5041657;28;51281;-50
2022/12/01 04:06:25;;;;;;;;;23.25;21.50;;;;;;;;5041708;28;51048;-49
2022/12/01 04:09:09;;;;;;;;;29.50;25.50;;;;;;;;5041757;28;51217;-49
2022/12/01 04:14:57;;;;;;;;;36.50;26.00;;;;;;;;5041996;28;51156;-49
2022/12/01 04:17:44;;;;;;;;;41.50;29.00;;;;;;;;5041455;28;51442;-48
2022/12/01 04:20:28;;;;;;;;;33.75;29.50;;;;;;;;5041625;28;51065;-50
2022/12/01 04:23:58;;;;;;;;;31.25;27.75;;;;;;;;5041211;28;51119;-51
2022/12/01 04:26:17;;;;;;;;;37.00;29.00;;;;;;;;5041593;28;51196;-48
2022/12/01 04:29:03;;;;;;;;;30.75;28.25;;;;;;;;5041139;28;51000;-49
2022/12/01 04:31:47;;;;;;;;;34.75;27.75;;;;;;;;5041344;28;51125;-48
2022/12/01 04:34:31;;;;;;;;;29.25;26.00;;;;;;;;5041316;28;51149;-47
2022/12/01 04:37:16;;;;;;;;;33.25;27.75;;;;;;;;5040754;28;51109;-49
2022/12/01 04:40:00;;;;;;;;;37.25;31.00;;;;;;;;5041426;28;51293;-49
2022/12/01 04:42:45;;;;;;;;;29.00;26.75;;;;;;;;5041025;28;51447;-46
2022/12/01 04:45:29;;;;;;;;;29.50;25.75;;;;;;;;5040824;28;51117;-49
2022/12/01 04:48:14;;;;;;;;;29.75;25.75;;;;;;;;5040905;28;51153;-49
2022/12/01 04:50:58;;;;;;;;;30.50;28.25;;;;;;;;5054550;28;51118;-47
2022/12/01 04:53:42;;;;;;;;;33.00;25.00;;;;;;;;5040506;28;51285;-48
2022/12/01 04:56:27;;;;;;;;;35.75;30.25;;;;;;;;5040730;28;51001;-50
2022/12/01 04:59:11;;;;;;;;;34.25;30.00;;;;;;;;5040836;28;51611;-50
2022/12/01 05:01:55;;;;;;;;;32.25;27.50;;;;;;;;5042854;28;51128;-48
2022/12/01 05:04:40;;;;;;;;;33.00;29.00;;;;;;;;5040479;28;51049;-49
2022/12/01 05:07:24;;;;;;;;;29.75;29.00;;;;;;;;5045104;28;51079;-49
2022/12/01 05:10:11;;;;;;;;;31.00;28.00;;;;;;;;5040468;28;51107;-49
2022/12/01 05:12:57;;;;;;;;;23.25;21.00;;;;;;;;5040511;28;51310;-52
2022/12/01 05:15:41;;;;;;;;;36.00;31.00;;;;;;;;5040434;28;51184;-50
2022/12/01 05:18:25;;;;;;;;;27.25;26.75;;;;;;;;5040144;28;51603;-48
2022/12/01 05:21:10;;;;;;;;;37.00;30.50;;;;;;;;5040434;28;51221;-50
2022/12/01 05:23:54;;;;;;;;;41.25;31.75;;;;;;;;5040237;28;51460;-52
2022/12/01 05:26:39;;;;;;;;;39.50;32.00;;;;;;;;5039845;28;51210;-50
2022/12/01 05:29:24;;;;;;;;;39.00;32.75;;;;;;;;5040521;28;51145;-49
2022/12/01 05:32:08;;;;;;;;;43.00;34.25;;;;;;;;5040062;28;51120;-49
2022/12/01 05:34:52;;;;;;;;;42.25;32.50;;;;;;;;5039714;28;51038;-48
2022/12/01 05:37:37;;;;;;;;;42.50;34.25;;;;;;;;5039596;28;50944;-49
2022/12/01 05:40:21;;;;;;;;;47.50;36.25;;;;;;;;5039789;28;51136;-51
2022/12/01 05:43:06;;;;;;;;;45.00;35.25;;;;;;;;5039765;28;51180;-50
2022/12/01 05:45:50;;;;;;;;;53.50;40.75;;;;;;;;5038577;28;51071;-48
2022/12/01 05:48:34;;;;;;;;;51.75;41.75;;;;;;;;5040338;28;51633;-50
2022/12/01 05:51:19;;;;;;;;;49.00;39.50;;;;;;;;5039465;28;51126;-49
2022/12/01 05:54:03;;;;;;;;;52.75;42.00;;;;;;;;5038651;28;51176;-49
2022/12/01 05:56:47;;;;;;;;;56.25;43.00;;;;;;;;5039723;28;52010;-49
2022/12/01 05:59:32;;;;;;;;;50.25;40.00;;;;;;;;5039970;28;51172;-51
2022/12/01 06:02:16;;;;;;;;;51.00;39.50;;;;;;;;5039662;28;51206;-49
2022/12/01 06:05:00;;;;;;;;;53.50;43.00;;;;;;;;5039906;28;51047;-51
2022/12/01 06:07:45;;;;;;;;;56.50;45.00;;;;;;;;5040048;28;52478;-47
2022/12/01 06:10:29;;;;;;;;;51.75;40.25;;;;;;;;5039998;28;51150;-48
2022/12/01 06:13:14;;;;;;;;;54.75;43.25;;;;;;;;5039989;28;51803;-48
2022/12/01 06:15:59;;;;;;;;;65.75;51.25;;;;;;;;5039390;28;51153;-50
2022/12/01 06:18:43;;;;;;;;;56.25;45.25;;;;;;;;5039825;28;51323;-49
2022/12/01 06:21:28;;;;;;;;;61.25;45.00;;;;;;;;5039372;28;51549;-49
2022/12/01 06:24:13;;;;;;;;;56.75;44.75;;;;;;;;5039675;28;51150;-49
2022/12/01 06:26:58;;;;;;;;;61.75;47.00;;;;;;;;5039174;28;51113;-51
2022/12/01 06:29:42;;;;;;;;;61.00;46.00;;;;;;;;5038801;28;51103;-49
2022/12/01 06:32:27;;;;;;;;;61.25;45.25;;;;;;;;5039311;28;51061;-49
2022/12/01 06:35:11;;;;;;;;;57.25;45.00;;;;;;;;5052103;28;51178;-48
2022/12/01 06:37:58;;;;;;;;;62.25;48.00;;;;;;;;5039406;28;51116;-50
2022/12/01 06:40:43;;;;;;;;;63.00;47.50;;;;;;;;5039508;28;51106;-49
2022/12/01 06:43:27;;;;;;;;;61.75;46.75;;;;;;;;5039492;28;51152;-51
2022/12/01 06:46:11;;;;;;;;;61.00;47.25;;;;;;;;5023605;28;51525;-50
2022/12/01 06:48:56;;;;;;;;;55.25;44.75;;;;;;;;5039560;28;51200;-53
2022/12/01 06:51:40;;;;;;;;;60.50;47.50;;;;;;;;5039412;28;51177;-49
2022/12/01 06:54:24;;;;;;;;;58.00;45.75;;;;;;;;5039368;28;51171;-51
2022/12/01 06:57:09;;;;;;;;;64.75;50.00;;;;;;;;5039200;28;51083;-48
2022/12/01 06:59:53;;;;;;;;;59.25;47.00;;;;;;;;5039481;28;51148;-49
2022/12/01 07:02:38;;;;;;;;;60.50;49.00;;;;;;;;5038931;28;51504;-50
2022/12/01 07:05:22;;;;;;;;;61.50;49.00;;;;;;;;5038787;28;51132;-49
2022/12/01 07:08:07;;;;;;;;;59.75;48.00;;;;;;;;5039444;28;51028;-49
2022/12/01 07:11:04;;;;;;;;;58.25;45.50;;;;;;;;5039119;28;51447;-49
2022/12/01 07:13:53;;;;;;;;;58.25;47.25;;;;;;;;5039408;28;51052;-49
2022/12/01 07:16:38;;;;;;;;;63.75;49.75;;;;;;;;5039010;28;51061;-48
2022/12/01 07:19:22;;;;;;;;;65.50;51.00;;;;;;;;5039319;28;51116;-48
2022/12/01 07:22:07;;;;;;;;;58.00;46.00;;;;;;;;5039265;28;51479;-50
2022/12/01 07:24:52;;;;;;;;;62.00;48.50;;;;;;;;5039065;28;51035;-48
2022/12/01 07:27:37;;;;;;;;;64.00;49.00;;;;;;;;5037868;28;51003;-51
2022/12/01 07:30:21;;;;;;;;;63.25;50.00;;;;;;;;5042134;28;51085;-49
2022/12/01 07:33:06;;;;;;;;;62.75;48.00;;;;;;;;5042330;28;51151;-49
2022/12/01 07:35:52;;;;;;;;;61.25;49.50;;;;;;;;5042110;28;51425;-49
2022/12/01 07:38:37;;;;;;;;;58.50;45.50;;;;;;;;5042434;28;51590;-50
2022/12/01 07:41:22;;;;;;;;;58.00;44.25;;;;;;;;5042160;28;51119;-49
2022/12/01 07:44:06;;;;;;;;;52.50;41.75;;;;;;;;5042559;28;51105;-48
2022/12/01 07:46:50;;;;;;;;;49.50;39.00;;;;;;;;5042177;28;51483;-48
2022/12/01 07:49:35;;;;;;;;;56.75;43.00;;;;;;;;5042228;28;51122;-50
2022/12/01 07:52:19;;;;;;;;;55.25;41.50;;;;;;;;5042584;28;51056;-48
2022/12/01 07:55:04;;;;;;;;;50.75;40.25;;;;;;;;5041986;28;51056;-48
2022/12/01 07:57:48;;;;;;;;;49.50;40.50;;;;;;;;5042404;28;51078;-50
2022/12/01 08:00:32;;;;;;;;;45.75;37.50;;;;;;;;5042098;28;51589;-52
2022/12/01 08:03:17;;;;;;;;;39.00;33.00;;;;;;;;5042054;28;51594;-48
2022/12/01 08:06:02;;;;;;;;;40.50;31.75;;;;;;;;5041855;28;51148;-49
2022/12/01 08:08:47;;;;;;;;;39.25;32.00;;;;;;;;5042238;28;51169;-51
2022/12/01 08:11:30;;;;;;;;;42.00;34.25;;;;;;;;5041467;28;51198;-50
2022/12/01 08:14:15;;;;;;;;;37.25;32.00;;;;;;;;5055262;28;51124;-51
2022/12/01 08:16:59;;;;;;;;;42.25;35.50;;;;;;;;5042168;28;51158;-49
2022/12/01 08:19:44;;;;;;;;;43.00;33.75;;;;;;;;5041094;28;51121;-50
2022/12/01 08:22:28;;;;;;;;;39.25;32.25;;;;;;;;5041622;28;51069;-52
2022/12/01 08:25:13;;;;;;;;;41.75;34.00;;;;;;;;5041310;28;51180;-49
2022/12/01 08:27:58;;;;;;;;;2.50;0.00;;;;;;;;5042065;28;51074;-52
2022/12/01 08:30:44;;;;;;;;;38.25;31.75;;;;;;;;5041386;28;51155;-50
2022/12/01 08:33:28;;;;;;;;;40.75;32.25;;;;;;;;5041841;28;51067;-51
2022/12/01 08:36:13;;;;;;;;;42.75;33.25;;;;;;;;5040872;28;51577;-49
2022/12/01 08:38:57;;;;;;;;;22.50;19.50;;;;;;;;5045495;28;51103;-49
2022/12/01 08:41:41;;;;;;;;;42.25;33.00;;;;;;;;5054627;28;51488;-53
2022/12/01 08:44:26;;;;;;;;;39.50;34.00;;;;;;;;5041062;28;51114;-49
2022/12/01 08:47:10;;;;;;;;;44.50;36.00;;;;;;;;5041145;28;51193;-49
2022/12/01 08:49:57;;;;;;;;;34.75;27.00;;;;;;;;5054361;28;51169;-49
2022/12/01 08:52:42;;;;;;;;;27.00;25.25;;;;;;;;5041103;28;51511;-49
2022/12/01 08:55:27;;;;;;;;;24.25;21.50;;;;;;;;5040689;28;51187;-48
2022/12/01 08:58:11;;;;;;;;;10.50;9.25;;;;;;;;5041114;28;51103;-50
2022/12/01 09:01:03;;;;;;;;;24.25;21.25;;;;;;;;5032650;28;51105;-49
2022/12/01 09:03:47;;;;;;;;;17.25;13.75;;;;;;;;5037196;28;51415;-49
2022/12/01 09:06:33;;;;;;;;;16.50;15.00;;;;;;;;5040086;28;51553;-48
2022/12/01 09:09:18;;;;;;;;;19.00;17.75;;;;;;;;5039965;28;51000;-50
2022/12/01 09:12:03;;;;;;;;;21.00;18.00;;;;;;;;5038422;28;51098;-53
2022/12/01 09:14:48;;;;;;;;;14.75;13.75;;;;;;;;5038510;28;51354;-53
2022/12/01 09:17:32;;;;;;;;;16.50;14.50;;;;;;;;5038222;28;51328;-49
2022/12/01 09:20:17;;;;;;;;;16.75;13.75;;;;;;;;5039167;28;51173;-52
2022/12/01 09:23:01;;;;;;;;;17.75;15.75;;;;;;;;5039709;28;51137;-52
2022/12/01 09:25:45;;;;;;;;;15.50;15.50;;;;;;;;5038787;28;51198;-51
2022/12/01 09:28:30;;;;;;;;;21.50;16.00;;;;;;;;5039197;28;51224;-53
2022/12/01 09:31:15;;;;;;;;;15.00;15.00;;;;;;;;5039970;28;51062;-52
2022/12/01 09:34:02;;;;;;;;;17.75;15.25;;;;;;;;5039593;28;51066;-49
2022/12/01 09:36:47;;;;;;;;;18.00;17.00;;;;;;;;5039414;28;51019;-50
2022/12/01 09:39:31;;;;;;;;;17.25;14.50;;;;;;;;5040147;28;51107;-53
2022/12/01 09:42:17;;;;;;;;;16.25;15.00;;;;;;;;5039970;28;51377;-53
2022/12/01 09:45:03;;;;;;;;;22.00;16.50;;;;;;;;5039553;28;51112;-52
2022/12/01 09:47:47;;;;;;;;;15.50;15.25;;;;;;;;5039303;28;51149;-52
2022/12/01 09:50:32;;;;;;;;;17.25;16.50;;;;;;;;5039228;28;51351;-53
2022/12/01 09:53:19;;;;;;;;;17.75;13.25;;;;;;;;5037461;28;51113;-52
2022/12/01 09:56:03;;;;;;;;;20.00;17.75;;;;;;;;5038283;28;51496;-49
2022/12/01 09:58:50;;;;;;;;;14.50;12.50;;;;;;;;5037179;28;51238;-51
2022/12/01 10:01:40;;;;;;;;;16.00;15.75;;;;;;;;5038189;28;51086;-49
2022/12/01 10:04:32;;;;;;;;;19.00;18.25;;;;;;;;5037406;28;51202;-49
2022/12/01 10:07:20;;;;;;;;;33.00;30.50;;;;;;;;5039177;28;51424;-53
2022/12/01 10:10:07;;;;;;;;;0.75;0.00;;;;;;;;5039554;28;51093;-50
2022/12/01 10:12:51;;;;;;;;;22.25;16.50;;;;;;;;5039903;28;51130;-52
2022/12/01 10:15:38;;;;;;;;;17.75;15.75;;;;;;;;5039745;28;51306;-50
2022/12/01 10:18:30;;;;;;;;;21.00;15.75;;;;;;;;5039737;28;51037;-50
2022/12/01 10:21:30;;;;;;;;;16.25;15.00;;;;;;;;5040043;28;51509;-52
2022/12/01 10:24:21;;;;;;;;;17.25;16.50;;;;;;;;5039548;28;51183;-52
2022/12/01 10:27:24;;;;;;;;;14.25;12.75;;;;;;;;5039588;28;51091;-48
2022/12/01 10:30:11;;;;;;;;;15.25;14.50;;;;;;;;5039663;28;51473;-51
2022/12/01 10:33:14;;;;;;;;;16.75;14.75;;;;;;;;5039536;28;51340;-52
2022/12/01 10:35:58;;;;;;;;;16.25;14.25;;;;;;;;5038798;28;51133;-53
2022/12/01 10:38:42;;;;;;;;;16.00;12.50;;;;;;;;5038587;28;51383;-53
2022/12/01 10:41:29;;;;;;;;;18.00;16.00;;;;;;;;5039556;28;51402;-53
2022/12/01 10:44:13;;;;;;;;;16.00;14.75;;;;;;;;5039509;28;51073;-55
2022/12/01 10:46:57;;;;;;;;;16.25;15.00;;;;;;;;5039498;28;51144;-49
2022/12/01 10:49:42;;;;;;;;;15.25;14.75;;;;;;;;5033991;28;51191;-54
2022/12/01 10:52:37;;;;;;;;;17.25;16.50;;;;;;;;5038189;28;51352;-51
2022/12/01 10:55:25;;;;;;;;;18.75;16.00;;;;;;;;5038861;28;51341;-53
2022/12/01 10:58:13;;;;;;;;;17.75;16.50;;;;;;;;5039232;28;51117;-50
2022/12/01 11:01:02;;;;;;;;;17.50;16.50;;;;;;;;5039348;28;51133;-53
2022/12/01 11:04:00;;;;;;;;;17.75;14.25;;;;;;;;5041848;28;51086;-51
2022/12/01 11:06:47;;;;;;;;;18.00;17.75;;;;;;;;5042866;28;51010;-51
2022/12/01 11:09:31;;;;;;;;;18.25;15.75;;;;;;;;5043415;28;51130;-52
2022/12/01 11:12:19;;;;;;;;;13.00;12.25;;;;;;;;5043168;28;51367;-51
2022/12/01 11:15:04;;;;;;;;;12.00;10.75;;;;;;;;5037969;28;51200;-51
2022/12/01 11:17:55;;;;;;;;;15.50;14.25;;;;;;;;5039366;28;51086;-54
2022/12/01 11:20:39;;;;;;;;;14.75;12.75;;;;;;;;5042539;28;51256;-49
2022/12/01 11:23:28;;;;;;;;;17.50;16.00;;;;;;;;5042112;28;51506;-54
2022/12/01 11:26:23;;;;;;;;;14.75;13.00;;;;;;;;5041721;28;51124;-52
2022/12/01 11:29:26;;;;;;;;;13.00;13.00;;;;;;;;5042686;28;51164;-53
2022/12/01 11:32:34;;;;;;;;;17.25;13.00;;;;;;;;5042608;28;51485;-52
2022/12/01 11:35:20;;;;;;;;;17.75;12.75;;;;;;;;5041925;28;51221;-51
2022/12/01 11:38:05;;;;;;;;;16.25;14.50;;;;;;;;5036571;28;51396;-51
2022/12/01 11:40:51;;;;;;;;;12.50;12.00;;;;;;;;5039190;28;51078;-51
2022/12/01 11:43:37;;;;;;;;;15.00;12.50;;;;;;;;5042273;28;51133;-49
2022/12/01 11:46:28;;;;;;;;;15.50;12.25;;;;;;;;5041315;28;51153;-50
2022/12/01 11:49:20;;;;;;;;;14.00;10.00;;;;;;;;5042061;28;51041;-50
2022/12/01 11:52:15;;;;;;;;;18.50;14.50;;;;;;;;5041951;28;51543;-48
2022/12/01 11:55:20;;;;;;;;;15.50;13.75;;;;;;;;5042366;28;51183;-50
2022/12/01 11:58:04;;;;;;;;;14.25;12.75;;;;;;;;5041047;28;51015;-52
2022/12/01 12:00:54;;;;;;;;;14.50;12.00;;;;;;;;5041860;28;51108;-50
2022/12/01 12:03:44;;;;;;;;;18.50;13.00;;;;;;;;5042204;28;51129;-47
2022/12/01 12:06:37;;;;;;;;;14.25;14.25;;;;;;;;5041108;28;51101;-51
2022/12/01 12:09:28;;;;;;;;;13.25;11.50;;;;;;;;5041159;28;51114;-50
2022/12/01 12:12:29;;;;;;;;;11.50;10.25;;;;;;;;5054764;28;51098;-52
2022/12/01 12:15:13;;;;;;;;;14.50;13.75;;;;;;;;5040800;28;51468;-49
2022/12/01 12:17:57;;;;;;;;;12.75;12.75;;;;;;;;5040460;28;51062;-52
2022/12/01 12:20:41;;;;;;;;;15.75;13.75;;;;;;;;5041792;28;51025;-49
2022/12/01 12:23:32;;;;;;;;;14.00;13.00;;;;;;;;5041224;28;51098;-51
2022/12/01 12:26:22;;;;;;;;;14.50;13.50;;;;;;;;5041656;28;51182;-50
2022/12/01 12:29:06;;;;;;;;;17.00;14.25;;;;;;;;5041785;28;51333;-48
2022/12/01 12:31:57;;;;;;;;;14.25;14.25;;;;;;;;5041524;28;51096;-50
2022/12/01 12:34:42;;;;;;;;;16.00;15.25;;;;;;;;5041893;28;51018;-51
2022/12/01 12:37:38;;;;;;;;;12.25;12.25;;;;;;;;5040852;28;51113;-50
2022/12/01 12:40:22;;;;;;;;;17.50;12.75;;;;;;;;5041299;28;51413;-52
2022/12/01 12:43:10;;;;;;;;;16.75;13.25;;;;;;;;5040976;28;51169;-49
2022/12/01 12:45:59;;;;;;;;;17.25;14.25;;;;;;;;5041632;28;51140;-53
2022/12/01 12:49:02;;;;;;;;;15.75;14.00;;;;;;;;5041169;28;51482;-52
2022/12/01 12:51:49;;;;;;;;;17.00;13.75;;;;;;;;5041364;28;51166;-49
2022/12/01 12:54:38;;;;;;;;;16.25;12.75;;;;;;;;5040522;28;51503;-54
2022/12/01 12:57:23;;;;;;;;;17.50;12.25;;;;;;;;5036627;28;51117;-52
2022/12/01 13:00:17;;;;;;;;;17.75;14.25;;;;;;;;5041584;28;51216;-51
2022/12/01 13:03:08;;;;;;;;;18.75;13.75;;;;;;;;5040082;28;51150;-49
2022/12/01 13:06:06;;;;;;;;;14.75;13.00;;;;;;;;5040837;28;51144;-49
2022/12/01 13:08:54;;;;;;;;;19.25;16.25;;;;;;;;5040888;28;51061;-48
2022/12/01 13:11:43;;;;;;;;;14.00;14.00;;;;;;;;5041213;28;51136;-49
2022/12/01 13:14:42;;;;;;;;;18.50;15.75;;;;;;;;5040904;28;51509;-51
2022/12/01 13:17:37;;;;;;;;;15.00;14.25;;;;;;;;5035333;28;51021;-49
2022/12/01 13:20:23;;;;;;;;;18.50;16.25;;;;;;;;5040762;28;51058;-51
2022/12/01 13:23:13;;;;;;;;;18.50;16.50;;;;;;;;5040763;28;51002;-51
2022/12/01 13:25:59;;;;;;;;;17.00;14.25;;;;;;;;5040157;28;51195;-49
2022/12/01 13:28:49;;;;;;;;;14.75;14.50;;;;;;;;5040198;28;53050;-49
2022/12/01 13:31:45;;;;;;;;;16.25;14.75;;;;;;;;5040275;28;51197;-49
2022/12/01 13:34:37;;;;;;;;;19.75;14.00;;;;;;;;5039176;28;51078;-49
2022/12/01 13:37:29;;;;;;;;;15.50;14.75;;;;;;;;5040508;28;51063;-49
2022/12/01 13:40:16;;;;;;;;;16.75;12.75;;;;;;;;5040283;28;51453;-48
2022/12/01 13:43:05;;;;;;;;;21.25;18.00;;;;;;;;5039905;28;51086;-51
2022/12/01 13:45:50;;;;;;;;;19.00;16.25;;;;;;;;5036032;28;52264;-49
2022/12/01 13:48:40;;;;;;;;;21.00;16.00;;;;;;;;5040127;28;51009;-49
2022/12/01 13:51:25;;;;;;;;;18.50;16.50;;;;;;;;5039674;28;51529;-49
2022/12/01 13:54:36;;;;;;;;;26.00;20.25;;;;;;;;5039855;28;51131;-51
2022/12/01 13:57:25;;;;;;;;;21.50;17.75;;;;;;;;5038345;28;51566;-50
2022/12/01 14:00:28;;;;;;;;;25.25;20.25;;;;;;;;5039516;28;51018;-51
2022/12/01 14:03:15;;;;;;;;;18.75;16.25;;;;;;;;5040120;28;51110;-50
2022/12/01 14:06:08;;;;;;;;;23.75;18.50;;;;;;;;5033817;28;51117;-49
2022/12/01 14:09:12;;;;;;;;;19.00;15.00;;;;;;;;5039126;28;51226;-49
2022/12/01 14:12:05;;;;;;;;;17.00;15.75;;;;;;;;5039573;28;51475;-51
2022/12/01 14:15:00;;;;;;;;;20.00;17.50;;;;;;;;5039487;28;50963;-50
2022/12/01 14:17:45;;;;;;;;;18.00;17.00;;;;;;;;5039191;28;51382;-49
2022/12/01 14:20:31;;;;;;;;;17.00;14.75;;;;;;;;5038800;28;51093;-50
2022/12/01 14:23:23;;;;;;;;;21.25;16.00;;;;;;;;5039512;28;51205;-50
2022/12/01 14:26:16;;;;;;;;;20.75;17.25;;;;;;;;5039273;28;51073;-48
2022/12/01 14:29:00;;;;;;;;;19.00;16.75;;;;;;;;5037265;28;51141;-48
2022/12/01 14:32:04;;;;;;;;;17.25;15.00;;;;;;;;5038996;28;50987;-50
2022/12/01 14:34:53;;;;;;;;;17.75;16.00;;;;;;;;5039635;28;51183;-52
2022/12/01 14:37:39;;;;;;;;;15.50;12.50;;;;;;;;5038730;28;51224;-49
2022/12/01 14:40:27;;;;;;;;;11.25;10.25;;;;;;;;5039366;28;51023;-52
2022/12/01 14:46:19;;;;;;;;;13.75;12.50;;;;;;;;5039665;28;51440;-49
2022/12/01 14:49:04;;;;;;;;;13.75;12.75;;;;;;;;5039656;28;51395;-51
2022/12/01 14:51:51;;;;;;;;;20.50;15.75;;;;;;;;5039116;28;51105;-51
2022/12/01 14:54:42;;;;;;;;;14.00;11.25;;;;;;;;5039916;28;51160;-52
2022/12/01 14:57:29;;;;;;;;;15.50;13.00;;;;;;;;5039179;28;51153;-51
2022/12/01 15:00:16;;;;;;;;;12.75;11.25;;;;;;;;5038955;28;51133;-48
2022/12/01 15:03:05;;;;;;;;;15.25;10.25;;;;;;;;5039490;28;51102;-52
2022/12/01 15:05:56;;;;;;;;;16.25;11.00;;;;;;;;5039622;28;51173;-51
2022/12/01 15:08:40;;;;;;;;;14.25;11.00;;;;;;;;5039211;28;51053;-49
2022/12/01 15:11:25;;;;;;;;;13.50;11.75;;;;;;;;5038767;28;51030;-50
2022/12/01 15:14:38;;;;;;;;;14.75;10.75;;;;;;;;5039177;28;51014;-49
2022/12/01 15:17:29;;;;;;;;;14.75;14.00;;;;;;;;5035688;28;51177;-49
2022/12/01 15:20:31;;;;;;;;;16.00;11.25;;;;;;;;5037313;28;51105;-48
2022/12/01 15:23:16;;;;;;;;;15.50;13.25;;;;;;;;5036899;28;51520;-50
2022/12/01 15:26:04;;;;;;;;;16.75;14.75;;;;;;;;5038718;28;51076;-52
2022/12/01 15:28:48;;;;;;;;;16.50;11.75;;;;;;;;5039096;28;51474;-52
2022/12/01 15:31:33;;;;;;;;;16.75;13.00;;;;;;;;5038038;28;51119;-49
2022/12/01 15:34:43;;;;;;;;;15.25;11.25;;;;;;;;5039475;28;51122;-48
2022/12/01 15:37:40;;;;;;;;;13.00;12.25;;;;;;;;5039539;28;51123;-54
2022/12/01 15:40:25;;;;;;;;;11.00;9.50;;;;;;;;5039328;28;51395;-48
2022/12/01 15:43:24;;;;;;;;;10.75;8.50;;;;;;;;5039080;28;51031;-52
2022/12/01 15:46:13;;;;;;;;;13.75;11.00;;;;;;;;5039424;28;51524;-50
2022/12/01 15:49:16;;;;;;;;;11.75;10.00;;;;;;;;5038775;28;51071;-50
2022/12/01 15:52:09;;;;;;;;;17.00;10.75;;;;;;;;5042609;28;51237;-51
2022/12/01 15:54:53;;;;;;;;;11.25;10.00;;;;;;;;5042454;28;51096;-51
2022/12/01 15:57:37;;;;;;;;;15.25;12.00;;;;;;;;5039923;28;51251;-48
2022/12/01 16:00:23;;;;;;;;;14.50;12.25;;;;;;;;5042315;28;51454;-49
2022/12/01 16:03:15;;;;;;;;;16.00;12.50;;;;;;;;5042488;28;51062;-51
2022/12/01 16:06:00;;;;;;;;;14.25;11.25;;;;;;;;5042600;28;51471;-48
2022/12/01 16:08:52;;;;;;;;;9.75;9.50;;;;;;;;5042159;28;51039;-49
2022/12/01 16:11:40;;;;;;;;;11.50;11.00;;;;;;;;5042501;28;51107;-52
2022/12/01 16:14:31;;;;;;;;;13.25;12.50;;;;;;;;5042085;28;51466;-51
2022/12/01 16:17:16;;;;;;;;;15.50;11.50;;;;;;;;5038724;28;51295;-50
2022/12/01 16:20:17;;;;;;;;;15.75;14.00;;;;;;;;5040687;28;51347;-47
2022/12/01 16:23:06;;;;;;;;;16.25;14.00;;;;;;;;5041720;28;51208;-51
2022/12/01 16:25:53;;;;;;;;;13.25;10.00;;;;;;;;5041064;28;51137;-50
2022/12/01 16:28:37;;;;;;;;;12.00;8.75;;;;;;;;5041681;28;51161;-48